Time;durP1;ratioP1;P1;durP2;ratioP2;P2;SDS_P1;SDS_P2;PMS_P1;PMS_P2;Temp;Humidity;BMP_temperature;BMP_pressure;BME280_temperature;BME280_humidity;BME280_pressure;Samples;Min_cycle;Max_cycle;Signal;HPM_P1;HPM_P2
2022/06/13 00:00:49;;;;;;;5.97;2.90;;;512.10;2380.80;;;;;;5119700;27;20516;-84
2022/06/13 00:03:16;;;;;;;4.00;2.58;;;512.10;2380.80;;;;;;5118880;27;20028;-84
2022/06/13 00:05:42;;;;;;;5.45;3.10;;;487.30;2380.80;;;;;;5119242;27;20027;-84
2022/06/13 00:08:08;;;;;;;4.72;3.00;;;512.00;2304.00;;;;;;5119225;27;20030;-84
2022/06/13 00:10:34;;;;;;;8.23;2.80;;;487.30;2329.60;;;;;;5118587;27;20118;-84
2022/06/13 00:12:59;;;;;;;4.63;2.78;;;512.00;2380.80;;;;;;5118877;27;20019;-84
2022/06/13 00:15:25;;;;;;;7.43;2.92;;;512.00;2380.80;;;;;;5118739;27;20024;-84
2022/06/13 00:17:51;;;;;;;4.68;3.10;;;512.00;2380.80;;;;;;5118863;27;20380;-84
2022/06/13 00:20:17;;;;;;;5.32;3.10;;;487.30;2380.80;;;;;;5118996;27;20027;-84
2022/06/13 00:22:43;;;;;;;5.97;3.22;;;487.20;2380.80;;;;;;5118735;27;20026;-84
2022/06/13 00:25:09;;;;;;;6.95;3.90;;;487.20;2380.80;;;;;;5118511;27;20034;-84
2022/06/13 00:27:35;;;;;;;9.75;3.83;;;487.20;2150.40;;;;;;5118455;27;20472;-85
2022/06/13 00:30:04;;;;;;;5.68;3.53;;;512.30;2380.80;;;;;;5118481;27;20031;-84
2022/06/13 00:32:30;;;;;;;7.35;3.38;;;487.10;2329.60;;;;;;5118244;27;20030;-83
2022/06/13 00:34:55;;;;;;;6.03;3.10;;;487.20;2380.80;;;;;;5118361;27;20027;-83
2022/06/13 00:37:21;;;;;;;5.20;3.03;;;487.10;2380.80;;;;;;5118473;27;20117;-83
2022/06/13 00:39:47;;;;;;;8.38;3.35;;;487.10;2201.60;;;;;;5118426;27;20464;-83
2022/06/13 00:42:18;;;;;;;4.95;2.80;;;487.20;2380.80;;;;;;5117879;27;20042;-83
2022/06/13 00:45:05;;;;;;;5.47;2.88;;;487.20;2380.80;;;;;;5118168;27;20023;-84
2022/06/13 00:47:31;;;;;;;8.00;3.13;;;487.10;2380.80;;;;;;5118107;27;20027;-84
2022/06/13 00:49:59;;;;;;;5.20;2.58;;;487.10;2380.80;;;;;;5118137;27;20468;-82
2022/06/13 00:52:32;;;;;;;5.90;3.13;;;487.00;2380.80;;;;;;5118079;27;20400;-84
2022/06/13 00:54:58;;;;;;;5.10;2.80;;;486.90;2380.80;;;;;;5117809;27;20054;-84
2022/06/13 00:57:29;;;;;;;7.80;3.67;;;487.00;2380.80;;;;;;5117095;27;20114;-83
2022/06/13 01:00:01;;;;;;;5.82;3.78;;;487.10;2278.40;;;;;;5117912;27;20429;-83
2022/06/13 01:02:28;;;;;;;6.10;3.42;;;487.00;2380.80;;;;;;5117775;27;20034;-83
2022/06/13 01:04:57;;;;;;;7.80;4.05;;;487.00;2380.80;;;;;;5117669;27;20091;-84
2022/06/13 01:07:22;;;;;;;8.30;3.55;;;487.00;2380.80;;;;;;5135951;27;20019;-84
2022/06/13 01:12:36;;;;;;;7.00;3.78;;;486.90;2380.80;;;;;;5136084;27;20115;-83
2022/06/13 01:15:09;;;;;;;4.68;3.30;;;487.00;2380.80;;;;;;5117069;27;20027;-83
2022/06/13 01:17:57;;;;;;;5.55;3.63;;;487.00;2380.80;;;;;;5117139;27;20080;-83
2022/06/13 01:20:45;;;;;;;4.82;3.03;;;486.90;2380.80;;;;;;5117311;27;20038;-84
2022/06/13 01:23:25;;;;;;;6.85;3.35;;;487.10;2380.80;;;;;;5117489;27;20027;-82
2022/06/13 01:26:09;;;;;;;6.95;4.18;;;487.00;2380.80;;;;;;5117260;27;20034;-83
2022/06/13 01:28:50;;;;;;;5.78;3.47;;;487.00;2380.80;;;;;;5117443;27;20112;-83
2022/06/13 01:31:38;;;;;;;5.78;3.25;;;487.00;2380.80;;;;;;5117533;27;20455;-83
2022/06/13 01:34:13;;;;;;;7.43;3.78;;;487.00;2380.80;;;;;;5067195;27;20065;-83
2022/06/13 01:36:45;;;;;;;7.10;3.85;;;487.00;2380.80;;;;;;5117887;28;20062;-84
2022/06/13 01:39:47;;;;;;;8.70;3.57;;;487.00;2380.80;;;;;;5117552;27;20027;-84
2022/06/13 01:42:33;;;;;;;7.28;4.32;;;487.00;2380.80;;;;;;5117703;27;20537;-84
2022/06/13 01:45:16;;;;;;;7.63;4.00;;;486.90;2380.80;;;;;;5116942;27;20038;-84
2022/06/13 01:48:10;;;;;;;7.40;4.30;;;487.00;2380.80;;;;;;5117150;28;20011;-83
2022/06/13 01:50:47;;;;;;;7.40;4.40;;;487.00;2380.80;;;;;;5116836;28;20035;-84
2022/06/13 01:53:25;;;;;;;7.40;4.20;;;486.90;2380.80;;;;;;5116991;27;20118;-84
2022/06/13 01:56:10;;;;;;;6.18;4.30;;;487.00;2073.60;;;;;;5117049;28;20062;-83
2022/06/13 01:59:01;;;;;;;7.63;4.50;;;486.90;2380.80;;;;;;5116938;28;20075;-84
2022/06/13 02:02:16;;;;;;;12.82;5.13;;;486.70;2380.80;;;;;;5117455;28;20031;-83
2022/06/13 02:04:54;;;;;;;9.52;4.57;;;486.50;2380.80;;;;;;5018244;28;20122;-83
2022/06/13 02:07:27;;;;;;;8.98;4.43;;;486.60;2380.80;;;;;;5016198;28;20033;-84
2022/06/13 02:10:10;;;;;;;8.18;4.18;;;486.50;2380.80;;;;;;5087993;27;20067;-84
2022/06/13 02:12:36;;;;;;;;;;;486.50;2150.40;;;;;;5121507;27;20027;-84
2022/06/13 02:15:10;;;;;;;7.05;3.85;;;486.50;2380.80;;;;;;5120960;27;19926;-83
2022/06/13 02:17:45;;;;;;;7.75;4.13;;;486.50;2380.80;;;;;;5139139;27;20027;-83
2022/06/13 02:20:20;;;;;;;7.80;4.50;;;486.50;2329.60;;;;;;5120696;27;20425;-83
2022/06/13 02:22:50;;;;;;;9.23;4.57;;;486.60;2380.80;;;;;;5120968;27;20031;-82
2022/06/13 02:25:43;;;;;;;8.40;4.10;;;486.50;2380.80;;;;;;5120711;27;20031;-83
2022/06/13 02:28:19;;;;;;;7.68;4.05;;;486.50;2380.80;;;;;;5120806;27;20091;-83
2022/06/13 02:30:53;;;;;;;6.80;4.20;;;486.50;2380.80;;;;;;5120655;27;20027;-84
2022/06/13 02:33:31;;;;;;;7.30;4.45;;;486.40;2022.40;;;;;;5120413;27;20039;-83
2022/06/13 02:35:59;;;;;;;7.47;4.10;;;486.50;2380.80;;;;;;5138920;27;20068;-84
2022/06/13 02:39:00;;;;;;;8.10;4.28;;;486.50;2380.80;;;;;;5120638;27;20030;-84
2022/06/13 02:41:33;;;;;;;9.20;4.38;;;486.60;2380.80;;;;;;5119526;27;20046;-84
2022/06/13 02:44:12;;;;;;;8.60;4.32;;;486.60;2380.80;;;;;;5120541;27;20027;-83
2022/06/13 02:46:51;;;;;;;10.98;4.35;;;486.50;2380.80;;;;;;5120399;27;20372;-84
2022/06/13 02:49:39;;;;;;;10.02;4.22;;;486.60;2380.80;;;;;;5120149;27;20507;-84
2022/06/13 02:52:28;;;;;;;6.90;4.25;;;486.50;2380.80;;;;;;5120407;27;20034;-84
2022/06/13 02:55:01;;;;;;;8.45;4.72;;;486.40;2380.80;;;;;;5116497;28;20058;-84
2022/06/13 02:57:31;;;;;;;;;;;486.40;2380.80;;;;;;5117382;28;20080;-84
2022/06/13 03:00:40;;;;;;;8.35;5.43;;;486.40;2380.80;;;;;;5116762;28;19908;-83
2022/06/13 03:03:31;;;;;;;8.13;4.45;;;486.40;2380.80;;;;;;5062080;28;20035;-83
2022/06/13 03:06:06;;;;;;;9.80;4.45;;;461.70;2380.80;;;;;;5116522;28;20027;-83
2022/06/13 03:08:46;;;;;;;6.03;4.07;;;461.70;2380.80;;;;;;5116287;28;20059;-83
2022/06/13 03:11:21;;;;;;;7.93;3.53;;;486.40;2380.80;;;;;;5116303;28;20039;-83
2022/06/13 03:14:24;;;;;;;6.65;4.03;;;486.40;2380.80;;;;;;5116485;28;20107;-83
2022/06/13 03:16:57;;;;;;;11.50;5.43;;;461.70;2380.80;;;;;;5116277;28;20043;-83
2022/06/13 03:19:35;;;;;;;9.05;4.75;;;461.60;2380.80;;;;;;5115589;28;20028;-83
2022/06/13 03:22:44;;;;;;;15.85;5.65;;;461.70;2380.80;;;;;;5116155;28;20383;-83
2022/06/13 03:25:12;;;;;;;10.25;5.65;;;461.70;2380.80;;;;;;5017765;28;20383;-83
2022/06/13 03:27:46;;;;;;;10.40;6.43;;;461.70;2380.80;;;;;;5017814;28;20078;-83
2022/06/13 03:30:16;;;;;;;9.30;5.05;;;486.40;2176.00;;;;;;5081945;28;20042;-84
2022/06/13 03:35:40;;;;;;;11.73;5.50;;;461.50;2380.80;;;;;;5084935;28;20027;-83
2022/06/13 03:38:11;;;;;;;10.10;5.50;;;461.50;2380.80;;;;;;5115789;28;20072;-83
2022/06/13 03:40:40;;;;;;;9.25;5.38;;;461.70;2380.80;;;;;;5116191;28;20035;-84
2022/06/13 03:43:17;;;;;;;8.98;5.97;;;461.70;2380.80;;;;;;5115979;28;20385;-84
2022/06/13 03:46:13;;;;;;;7.18;5.40;;;486.40;2380.80;;;;;;5115808;28;20085;-83
2022/06/13 03:48:55;;;;;;;8.15;5.75;;;486.40;2380.80;;;;;;5113185;28;20040;-84
2022/06/13 03:51:25;;;;;;;8.80;5.40;;;486.40;2380.80;;;;;;5115349;28;20027;-84
2022/06/13 03:54:10;;;;;;;11.27;7.00;;;486.40;2380.80;;;;;;5115366;28;20054;-83
2022/06/13 03:56:36;;;;;;;10.65;6.30;;;461.70;2380.80;;;;;;5115686;28;20093;-83
2022/06/13 03:59:14;;;;;;;10.48;6.30;;;461.70;2380.80;;;;;;5115544;28;20032;-84
2022/06/13 04:01:48;;;;;;;8.63;6.30;;;461.70;2380.80;;;;;;5115552;28;20058;-84
2022/06/13 04:04:24;;;;;;;10.82;6.78;;;461.70;2380.80;;;;;;5115276;28;20027;-83
2022/06/13 04:06:51;;;;;;;14.02;6.65;;;461.70;2380.80;;;;;;5115492;28;20358;-83
2022/06/13 04:09:27;;;;;;;10.80;6.93;;;461.60;2380.80;;;;;;5115131;28;20425;-84
2022/06/13 04:12:21;;;;;;;8.20;6.90;;;461.50;2380.80;;;;;;5115471;28;20050;-84
2022/06/13 04:15:05;;;;;;;12.13;6.72;;;461.50;2380.80;;;;;;5115711;28;20045;-84
2022/06/13 04:17:34;;;;;;;10.63;6.10;;;461.50;2380.80;;;;;;5115527;28;20077;-83
2022/06/13 04:20:21;;;;;;;11.98;7.28;;;461.70;2380.80;;;;;;5115707;28;20035;-83
2022/06/13 04:22:49;;;;;;;9.57;7.22;;;486.40;2380.80;;;;;;5115359;28;20019;-84
2022/06/13 04:25:30;;;;;;;11.27;7.65;;;486.40;2380.80;;;;;;5115461;28;20472;-83
2022/06/13 04:28:35;;;;;;;12.05;7.57;;;486.50;2380.80;;;;;;5117508;28;20058;-84
2022/06/13 04:31:03;;;;;;;11.02;8.43;;;486.60;2380.80;;;;;;5137760;28;20023;-83
2022/06/13 04:33:50;;;;;;;9.40;7.75;;;486.70;2380.80;;;;;;5139303;28;20032;-83
2022/06/13 04:36:17;;;;;;;11.52;8.45;;;487.00;2380.80;;;;;;5138343;28;20035;-83
2022/06/13 04:38:48;;;;;;;11.48;7.65;;;487.00;2380.80;;;;;;5116080;28;20024;-83
2022/06/13 04:41:15;;;;;;;12.23;8.25;;;486.90;2380.80;;;;;;5122277;28;20110;-83
2022/06/13 04:43:46;;;;;;;9.75;7.63;;;486.90;2380.80;;;;;;5131072;28;20051;-84
2022/06/13 04:46:12;;;;;;;10.45;7.65;;;;;;;;;;5130264;28;20041;-84
2022/06/13 04:48:43;;;;;;;10.20;7.72;;;;;;;;;;5127560;28;20020;-84
2022/06/13 04:51:16;;;;;;;10.10;7.82;;;;;;;;;;5121925;28;20050;-84
2022/06/13 04:54:00;;;;;;;12.38;7.30;;;487.00;2380.80;;;;;;5119375;28;20043;-84
2022/06/13 04:56:27;;;;;;;14.90;8.10;;;;;;;;;;5115848;28;20097;-84
2022/06/13 04:58:54;;;;;;;13.57;8.00;;;;;;;;;;5114352;28;20046;-84
2022/06/13 05:01:31;;;;;;;10.13;7.03;;;;;;;;;;5116482;28;20031;-84
2022/06/13 05:03:59;;;;;;;13.82;7.95;;;;;;;;;;5114377;28;20012;-84
2022/06/13 05:06:30;;;;;;;10.90;7.70;;;;;;;;;;5114273;28;20106;-84
2022/06/13 05:08:59;;;;;;;11.50;7.90;;;;;;;;;;5114753;28;20027;-84
2022/06/13 05:11:28;;;;;;;15.75;7.53;;;487.10;2380.80;;;;;;5114306;28;20030;-84
2022/06/13 05:14:03;;;;;;;13.13;6.82;;;487.10;2380.80;;;;;;5115190;28;20027;-83
2022/06/13 05:16:38;;;;;;;11.40;7.75;;;487.20;2380.80;;;;;;5114364;28;20473;-82
2022/06/13 05:19:38;;;;;;;13.23;7.18;;;487.10;2380.80;;;;;;5114564;28;20483;-84
2022/06/13 05:22:48;;;;;;;14.23;7.75;;;487.00;2380.80;;;;;;5114056;28;20020;-84
2022/06/13 05:25:49;;;;;;;14.10;8.05;;;487.00;2380.80;;;;;;5102192;28;20031;-84
2022/06/13 05:28:18;;;;;;;13.35;7.07;;;487.00;2380.80;;;;;;5113078;28;20085;-83
2022/06/13 05:30:47;;;;;;;16.23;7.35;;;486.90;2380.80;;;;;;5114894;28;20126;-84
2022/06/13 05:33:15;;;;;;;12.63;8.40;;;487.00;2380.80;;;;;;5113880;28;20133;-83
2022/06/13 05:35:45;;;;;;;10.85;7.68;;;487.10;2380.80;;;;;;5113679;28;20028;-85
2022/06/13 05:38:22;;;;;;;8.05;7.05;;;487.10;2380.80;;;;;;5114275;28;20123;-84
2022/06/13 05:40:48;;;;;;;13.65;8.13;;;487.20;2380.80;;;;;;5113832;28;20024;-84
2022/06/13 05:43:14;;;;;;;8.48;7.55;;;487.20;2380.80;;;;;;5113316;28;20027;-85
2022/06/13 05:45:41;;;;;;;11.90;9.55;;;487.20;2380.80;;;;;;5113898;28;20520;-85
2022/06/13 05:48:14;;;;;;;14.32;7.88;;;487.30;2380.80;;;;;;5113981;28;20032;-85
2022/06/13 05:50:41;;;;;;;12.32;6.85;;;487.30;2380.80;;;;;;5114253;28;20473;-85
2022/06/13 05:53:08;;;;;;;11.02;6.85;;;512.10;2380.80;;;;;;5113977;28;20024;-84
2022/06/13 05:55:35;;;;;;;14.32;8.35;;;512.20;2380.80;;;;;;5113432;28;20051;-84
2022/06/13 05:58:01;;;;;;;12.35;7.85;;;512.30;2022.40;;;;;;5115593;28;20387;-84
2022/06/13 06:00:35;;;;;;;12.68;8.00;;;512.20;2380.80;;;;;;5113876;28;20027;-84
2022/06/13 06:03:00;;;;;;;16.70;9.15;;;512.30;2380.80;;;;;;5113301;28;20055;-84
2022/06/13 06:05:26;;;;;;;15.40;7.47;;;512.30;2380.80;;;;;;5113443;28;20024;-84
2022/06/13 06:07:52;;;;;;;11.07;8.63;;;512.40;2380.80;;;;;;5113492;28;20031;-84
2022/06/13 06:10:22;;;;;;;17.02;8.88;;;512.60;2380.80;;;;;;5113025;28;20028;-84
2022/06/13 06:12:48;;;;;;;12.20;7.07;;;512.60;2380.80;;;;;;5113522;28;20020;-84
2022/06/13 06:15:14;;;;;;;9.70;6.13;;;512.60;2380.80;;;;;;5113745;28;20026;-84
2022/06/13 06:17:40;;;;;;;7.80;5.70;;;512.50;2380.80;;;;;;5113513;28;20461;-84
2022/06/13 06:20:07;;;;;;;6.75;5.85;;;512.80;2380.80;;;;;;5113462;28;20027;-84
2022/06/13 06:22:33;;;;;;;14.13;6.07;;;512.90;2380.80;;;;;;5114499;28;20034;-85
2022/06/13 06:24:58;;;;;;;11.75;5.55;;;512.90;2380.80;;;;;;5113695;28;20118;-83
2022/06/13 06:27:24;;;;;;;7.28;5.15;;;512.90;2380.80;;;;;;5113314;28;20061;-84
2022/06/13 06:29:50;;;;;;;7.53;5.05;;;537.70;2406.40;;;;;;5113207;28;20031;-83
2022/06/13 06:32:16;;;;;;;8.52;5.80;;;537.70;2406.40;;;;;;5113079;28;20043;-84
2022/06/13 06:34:41;;;;;;;8.90;5.68;;;538.00;2406.40;;;;;;5114952;28;20020;-84
2022/06/13 06:37:08;;;;;;;8.40;5.32;;;538.00;2406.40;;;;;;5114897;28;20384;-83
2022/06/13 06:39:34;;;;;;;8.65;5.18;;;538.00;2406.40;;;;;;5116386;28;20020;-85
2022/06/13 06:41:59;;;;;;;10.45;5.88;;;538.30;2406.40;;;;;;5117586;28;20119;-83
2022/06/13 06:44:25;;;;;;;11.02;6.50;;;538.30;2406.40;;;;;;5115973;28;20028;-84
2022/06/13 06:46:51;;;;;;;9.80;5.90;;;538.50;2406.40;;;;;;5116454;28;20084;-84
2022/06/13 06:49:17;;;;;;;8.85;6.40;;;563.40;2432.00;;;;;;5119029;28;20019;-84
2022/06/13 06:51:44;;;;;;;11.80;6.78;;;563.30;2432.00;;;;;;5119046;28;20032;-85
2022/06/13 06:59:53;;;;;;;9.05;6.85;;;563.60;2432.00;;;;;;5118988;28;20077;-86
2022/06/13 07:02:23;;;;;;;9.75;7.75;;;563.50;2432.00;;;;;;5118059;28;20110;-89
2022/06/13 07:05:00;;;;;;;9.95;7.90;;;563.50;2432.00;;;;;;5118957;28;20042;-86
2022/06/13 07:07:29;;;;;;;12.48;8.27;;;563.60;2432.00;;;;;;5118625;28;20451;-87
2022/06/13 07:10:12;;;;;;;10.45;8.30;;;563.90;2432.00;;;;;;5118394;28;20027;-86
2022/06/13 07:12:42;;;;;;;10.48;8.80;;;564.00;2432.00;;;;;;5118670;28;20277;-89
2022/06/13 07:15:27;;;;;;;11.27;7.75;;;563.30;2432.00;;;;;;5117679;28;20418;-89
2022/06/13 07:17:53;;;;;;;11.93;8.30;;;589.50;2432.00;;;;;;5117132;28;20023;-84
2022/06/13 07:20:19;;;;;;;10.57;8.63;;;588.80;2432.00;;;;;;5116122;28;20030;-82
2022/06/13 07:22:52;;;;;;;10.10;9.15;;;564.10;2432.00;;;;;;5114001;28;20019;-86
2022/06/13 07:25:22;;;;;;;10.90;9.30;;;564.10;2432.00;;;;;;5114563;28;20039;-85
2022/06/13 07:27:48;;;;;;;15.25;11.45;;;563.90;2432.00;;;;;;5117261;28;20026;-85
2022/06/13 07:30:16;;;;;;;17.23;10.43;;;563.90;2432.00;;;;;;5102294;28;20033;-86
2022/06/13 07:32:43;;;;;;;12.77;10.07;;;563.80;2432.00;;;;;;5096414;28;20419;-86
2022/06/13 07:35:10;;;;;;;12.23;9.57;;;563.90;2432.00;;;;;;5095965;28;20020;-86
2022/06/13 07:40:20;;;;;;;13.25;10.00;;;564.00;2432.00;;;;;;5096861;28;20066;-85
2022/06/13 07:42:50;;;;;;;10.80;8.98;;;564.10;2432.00;;;;;;5096116;28;20023;-85
2022/06/13 07:45:20;;;;;;;11.93;9.70;;;588.90;2432.00;;;;;;5096096;28;20476;-86
2022/06/13 07:47:46;;;;;;;11.65;8.95;;;589.10;2432.00;;;;;;5096275;28;20028;-87
2022/06/13 07:50:14;;;;;;;13.30;9.52;;;589.20;2432.00;;;;;;5099801;28;20053;-85
2022/06/13 07:52:40;;;;;;;10.63;9.52;;;564.10;2432.00;;;;;;5098786;28;20024;-87
2022/06/13 07:55:07;;;;;;;14.10;10.10;;;589.00;2432.00;;;;;;5116116;28;20036;-87
2022/06/13 07:57:33;;;;;;;11.27;10.00;;;589.30;2432.00;;;;;;5112237;28;20020;-86
2022/06/13 08:00:00;;;;;;;9.88;8.88;;;589.50;2432.00;;;;;;5096019;28;20100;-85
2022/06/13 08:02:30;;;;;;;14.48;9.85;;;589.70;2432.00;;;;;;5096053;28;20031;-87
2022/06/13 08:04:56;;;;;;;15.35;10.52;;;589.70;2432.00;;;;;;5095742;28;20024;-87
2022/06/13 08:07:22;;;;;;;13.52;9.98;;;614.50;2432.00;;;;;;5095064;28;20024;-86
2022/06/13 08:09:48;;;;;;;11.02;9.50;;;614.60;2432.00;;;;;;5095935;28;20035;-84
2022/06/13 08:12:17;;;;;;;10.82;9.43;;;614.70;2432.00;;;;;;5096132;28;20024;-87
2022/06/13 08:14:47;;;;;;;11.45;10.25;;;614.70;2432.00;;;;;;5105721;28;20074;-85
2022/06/13 08:17:19;;;;;;;10.98;9.80;;;614.50;2432.00;;;;;;5099726;28;20020;-84
2022/06/13 08:19:46;;;;;;;11.15;9.88;;;614.60;2432.00;;;;;;5113744;28;20019;-83
2022/06/13 08:22:11;;;;;;;12.55;9.23;;;614.80;2432.00;;;;;;5094369;28;20407;-82
2022/06/13 08:24:37;;;;;;;11.02;8.57;;;614.80;2432.00;;;;;;5095309;28;20024;-83
2022/06/13 08:27:03;;;;;;;12.15;9.75;;;614.70;2432.00;;;;;;5095359;28;20445;-83
2022/06/13 08:29:30;;;;;;;17.02;9.55;;;614.80;2432.00;;;;;;5094586;28;20119;-83
2022/06/13 08:31:56;;;;;;;12.52;8.75;;;614.80;2432.00;;;;;;5094911;28;20032;-82
2022/06/13 08:34:22;;;;;;;12.88;9.68;;;614.80;2432.00;;;;;;5095017;28;20043;-81
2022/06/13 08:36:48;;;;;;;10.70;8.70;;;614.80;2432.00;;;;;;5096396;28;20024;-83
2022/06/13 08:39:14;;;;;;;15.07;9.98;;;614.70;2432.00;;;;;;5095298;28;20487;-84
2022/06/13 08:42:05;;;;;;;12.00;9.25;;;614.70;2432.00;;;;;;5095246;28;20028;-86
2022/06/13 08:44:40;;;;;;;9.98;8.98;;;614.70;2432.00;;;;;;5095576;28;20028;-86
2022/06/13 08:47:09;;;;;;;11.35;8.82;;;614.90;2432.00;;;;;;5099348;28;20034;-82
2022/06/13 08:49:40;;;;;;;21.83;9.70;;;615.10;2432.00;;;;;;5116547;28;20034;-81
2022/06/13 08:52:25;;;;;;;12.77;10.80;;;640.00;2432.00;;;;;;5117424;28;20106;-82
2022/06/13 08:55:26;;;;;;;18.88;12.05;;;640.00;2432.00;;;;;;5115171;28;20437;-83
2022/06/13 08:58:12;;;;;;;15.35;13.80;;;640.10;2432.00;;;;;;5114192;28;20019;-83
2022/06/13 09:00:50;;;;;;;13.77;8.50;;;640.30;2432.00;;;;;;5113493;28;20034;-83
2022/06/13 09:03:22;;;;;;;11.77;10.57;;;640.50;2432.00;;;;;;5114731;28;20110;-85
2022/06/13 09:05:48;;;;;;;16.13;13.48;;;640.30;2432.00;;;;;;5103217;28;20173;-82
2022/06/13 09:08:48;;;;;;;10.07;8.90;;;640.20;2432.00;;;;;;5114025;28;20536;-82
2022/06/13 09:11:36;;;;;;;11.68;10.57;;;640.50;2432.00;;;;;;5097463;28;20084;-81
2022/06/13 09:14:12;;;;;;;11.98;9.18;;;640.50;2432.00;;;;;;5100872;28;20169;-82
2022/06/13 09:16:41;;;;;;;10.52;9.50;;;640.70;2432.00;;;;;;5093331;28;20061;-81
2022/06/13 09:19:16;;;;;;;14.43;11.52;;;665.60;2432.00;;;;;;5092201;28;20034;-81
2022/06/13 09:21:48;;;;;;;14.35;10.98;;;665.80;2432.00;;;;;;5095061;28;20032;-81
2022/06/13 09:24:41;;;;;;;14.80;10.68;;;666.00;2432.00;;;;;;5093306;28;20085;-80
2022/06/13 09:27:17;;;;;;;12.68;11.30;;;666.40;2432.00;;;;;;5093296;28;20026;-80
2022/06/13 09:30:07;;;;;;;12.45;11.15;;;666.50;2432.00;;;;;;5093230;28;20020;-78
2022/06/13 09:32:57;;;;;;;13.27;11.70;;;666.50;2432.00;;;;;;5093165;28;20024;-83
2022/06/13 09:35:32;;;;;;;10.77;7.65;;;691.50;2432.00;;;;;;5093069;28;20165;-84
2022/06/13 09:38:07;;;;;;;11.55;9.38;;;691.30;2432.00;;;;;;5101491;28;20118;-79
2022/06/13 09:40:40;;;;;;;15.70;9.27;;;691.50;2432.00;;;;;;5106352;28;20630;-79
2022/06/13 09:43:22;;;;;;;12.70;8.88;;;691.50;2432.00;;;;;;5104854;28;20027;-84
2022/06/13 09:46:03;;;;;;;10.65;8.95;;;691.40;2432.00;;;;;;5113930;28;20036;-84
2022/06/13 09:48:56;;;;;;;9.15;7.82;;;691.80;2432.00;;;;;;5113848;28;20084;-86
2022/06/13 09:52:05;;;;;;;13.15;8.20;;;692.10;2432.00;;;;;;5113859;28;20039;-86
2022/06/13 09:54:40;;;;;;;10.65;7.85;;;691.90;2432.00;;;;;;5113575;28;20043;-79
2022/06/13 09:57:26;;;;;;;8.35;7.40;;;692.10;2432.00;;;;;;5119865;28;20016;-84
2022/06/13 10:00:16;;;;;;;11.80;7.47;;;691.70;2432.00;;;;;;5121057;28;20028;-82
2022/06/13 10:03:10;;;;;;;9.63;8.63;;;691.90;2432.00;;;;;;5121462;28;20023;-81
2022/06/13 10:05:47;;;;;;;26.13;23.58;;;692.10;2432.00;;;;;;5129658;28;20049;-80
2022/06/13 10:08:22;;;;;;;10.85;9.75;;;692.10;2432.00;;;;;;5124811;28;20413;-80
2022/06/13 10:11:14;;;;;;;10.35;9.32;;;691.90;2432.00;;;;;;5124683;28;20038;-80
2022/06/13 10:13:56;;;;;;;8.03;7.23;;;691.60;2432.00;;;;;;5097204;28;20036;-81
2022/06/13 10:16:58;;;;;;;11.50;7.55;;;691.20;2432.00;;;;;;5094660;28;20034;-80
2022/06/13 10:19:24;;;;;;;10.00;8.20;;;691.20;2432.00;;;;;;5094227;28;20487;-81
2022/06/13 10:22:13;;;;;;;8.85;7.25;;;691.70;2432.00;;;;;;5096545;28;20023;-80
2022/06/13 10:24:51;;;;;;;11.43;7.95;;;692.10;2432.00;;;;;;5083173;28;20611;-80
2022/06/13 10:27:19;;;;;;;11.65;6.82;;;692.00;2432.00;;;;;;5093105;28;20092;-79
2022/06/13 10:30:26;;;;;;;9.98;7.07;;;691.90;2432.00;;;;;;5095642;28;20076;-79
2022/06/13 10:33:29;;;;;;;7.15;6.45;;;691.70;2432.00;;;;;;5080551;28;20500;-79
2022/06/13 10:35:58;;;;;;;7.45;6.63;;;692.00;2432.00;;;;;;5097747;28;20032;-76
2022/06/13 10:38:26;;;;;;;7.47;6.78;;;692.00;2432.00;;;;;;5097641;28;20054;-76
2022/06/13 10:40:53;;;;;;;7.93;6.85;;;692.00;2432.00;;;;;;5095958;28;20024;-78
2022/06/13 10:43:20;;;;;;;6.80;6.10;;;691.80;2432.00;;;;;;5095659;28;20478;-77
2022/06/13 10:45:46;;;;;;;7.60;6.82;;;691.60;2432.00;;;;;;5097184;28;20024;-77
2022/06/13 10:48:46;;;;;;;8.32;7.47;;;691.60;2432.00;;;;;;5095918;28;20115;-77
2022/06/13 10:51:12;;;;;;;12.50;8.07;;;691.80;2432.00;;;;;;5096742;28;20120;-77
2022/06/13 10:54:08;;;;;;;7.40;6.70;;;717.10;2432.00;;;;;;5098525;28;20131;-76
2022/06/13 10:56:45;;;;;;;7.18;6.38;;;717.30;2432.00;;;;;;5098366;28;20023;-77
2022/06/13 10:59:23;;;;;;;8.52;7.53;;;717.50;2432.00;;;;;;5099013;28;20484;-76
2022/06/13 11:02:00;;;;;;;6.78;5.50;;;717.70;2432.00;;;;;;5098690;28;20042;-77
2022/06/13 11:04:29;;;;;;;8.35;6.80;;;742.90;2432.00;;;;;;5098251;28;20023;-77
2022/06/13 11:06:59;;;;;;;7.05;6.05;;;742.90;2432.00;;;;;;5117384;27;20046;-77
2022/06/13 11:09:43;;;;;;;12.70;10.02;;;743.30;2432.00;;;;;;5119481;27;20019;-77
2022/06/13 11:12:30;;;;;;;9.32;7.15;;;743.10;2406.40;;;;;;5115024;28;20070;-79
2022/06/13 11:23:45;;;;;;;;;;;743.00;2329.60;;;;;;5121604;27;20081;-79
2022/06/13 11:28:58;;;;;;;7.13;4.90;;;768.30;2432.00;;;;;;5105045;27;21503;-76
2022/06/13 11:31:26;;;;;;;7.75;5.45;;;768.40;2329.60;;;;;;5141721;27;20393;-79
2022/06/13 11:33:55;;;;;;;13.45;9.25;;;768.30;2380.80;;;;;;5121903;28;20012;-77
2022/06/13 11:36:27;;;;;;;8.13;5.50;;;743.30;2406.40;;;;;;5118301;28;20020;-78
2022/06/13 11:38:59;;;;;;;8.10;5.65;;;742.90;2432.00;;;;;;5098891;28;20067;-79
2022/06/13 11:41:46;;;;;;;6.63;5.13;;;742.80;2432.00;;;;;;5098073;28;20031;-79
2022/06/13 11:44:17;;;;;;;10.15;6.05;;;742.40;2432.00;;;;;;5098449;28;20024;-78
2022/06/13 11:46:54;;;;;;;7.70;6.10;;;717.50;2432.00;;;;;;5097350;28;20034;-77
2022/06/13 11:49:39;;;;;;;8.45;6.13;;;717.30;2432.00;;;;;;5098157;28;20027;-77
2022/06/13 11:53:35;;;;;;;10.00;5.70;;;717.60;2432.00;;;;;;5097778;28;20028;-75
2022/06/13 11:55:00;;;;;;;10.00;5.20;;;742.80;2432.00;;;;;;5132959;27;20085;-79
2022/06/13 11:57:40;;;;;;;6.72;6.10;;;742.40;2432.00;;;;;;5118374;27;20384;-77
2022/06/13 12:00:12;;;;;;;6.50;5.85;;;742.50;2432.00;;;;;;5117964;27;20418;-77
2022/06/13 12:02:50;;;;;;;7.70;6.38;;;742.60;2432.00;;;;;;5118041;27;20072;-78
2022/06/13 12:05:19;;;;;;;6.53;4.57;;;743.00;2432.00;;;;;;5118141;27;20019;-78
2022/06/13 12:08:15;;;;;;;9.27;5.43;;;743.10;2329.60;;;;;;5098321;28;20028;-81
2022/06/13 12:10:56;;;;;;;6.78;5.35;;;768.00;2380.80;;;;;;5097740;28;20036;-79
2022/06/13 12:13:22;;;;;;;6.75;5.53;;;768.40;2329.60;;;;;;5097346;28;20546;-78
2022/06/13 12:16:00;;;;;;;6.20;5.32;;;768.60;2329.60;;;;;;5115844;28;20342;-77
2022/06/13 12:18:32;;;;;;;6.47;4.32;;;768.90;2304.00;;;;;;5097551;28;20023;-80
2022/06/13 12:21:01;;;;;;;;;;;793.70;2329.60;;;;;;5105679;27;20035;-79
2022/06/13 12:23:33;;;;;;;6.90;4.25;;;793.70;2252.80;;;;;;5135803;27;19907;-80
2022/06/13 12:26:31;;;;;;;5.45;4.20;;;793.80;2227.20;;;;;;5118355;27;20476;-80
2022/06/13 12:29:03;;;;;;;6.88;3.90;;;794.10;2201.60;;;;;;5117127;27;20023;-79
2022/06/13 12:31:34;;;;;;;;;;;794.20;2073.60;;;;;;5136749;27;20283;-77
2022/06/13 12:34:25;;;;;;;6.43;3.80;;;794.10;2124.80;;;;;;5117389;27;20371;-76
2022/06/13 12:37:12;;;;;;;6.43;3.83;;;794.50;2150.40;;;;;;5117642;27;20062;-77
2022/06/13 12:39:50;;;;;;;7.55;3.70;;;819.20;2150.40;;;;;;5136231;27;20033;-77
2022/06/13 12:42:39;;;;;;;7.50;4.03;;;819.30;2099.20;;;;;;5117143;27;20030;-77
2022/06/13 12:45:34;;;;;;;4.28;3.55;;;794.50;2048.00;;;;;;5124004;27;20019;-76
2022/06/13 12:48:06;;;;;;;6.78;3.80;;;794.50;2022.40;;;;;;5115186;28;20016;-76
2022/06/13 12:50:49;;;;;;;7.03;4.35;;;819.40;2099.20;;;;;;5096700;28;20365;-77
2022/06/13 12:53:27;;;;;;;8.32;3.90;;;819.70;2099.20;;;;;;5095683;28;20388;-77
2022/06/13 12:55:56;;;;;;;6.78;4.03;;;819.70;2048.00;;;;;;5096509;28;20127;-77
2022/06/13 12:58:31;;;;;;;8.45;4.07;;;819.90;2022.40;;;;;;5096690;28;20160;-77
2022/06/13 13:01:07;;;;;;;6.05;3.92;;;820.00;1996.80;;;;;;5114924;28;20047;-77
2022/06/13 13:03:46;;;;;;;8.75;5.88;;;819.80;1945.60;;;;;;5114306;28;20024;-77
2022/06/13 13:06:18;;;;;;;6.55;5.40;;;820.00;2022.40;;;;;;5096701;28;20027;-77
2022/06/13 13:09:02;;;;;;;8.55;4.93;;;819.80;2022.40;;;;;;5096646;28;20118;-77
2022/06/13 13:12:06;;;;;;;5.53;4.10;;;819.70;1945.60;;;;;;5096619;28;20093;-77
2022/06/13 13:14:49;;;;;;;5.22;4.72;;;819.50;1971.20;;;;;;5096063;28;20031;-77
2022/06/13 13:17:27;;;;;;;8.07;5.93;;;819.80;1996.80;;;;;;5096110;28;20419;-77
2022/06/13 13:20:14;;;;;;;15.40;7.82;;;819.40;1920.00;;;;;;5096386;28;20494;-78
2022/06/13 13:22:57;;;;;;;6.68;4.18;;;819.70;1920.00;;;;;;5096317;28;20057;-79
2022/06/13 13:25:55;;;;;;;7.35;4.55;;;819.80;1868.80;;;;;;5096203;28;20024;-79